Terminal Aerodrome Forecast
Issued by NWS

Home | Current Version | Previous Version | Text Only | Print | Product List | Glossary Off
Versions: 1 2 3 4 5 6 7 8 9 10 11 12 13 14 15 16 17 18 19 20 21 22 23 24 25

000
FTUS42 KMHX 142300
TAFISO
TAF
KISO 142320Z 1500/1524 02005KT P6SM OVC040
     FM150700 03003KT 4SM BR OVC010
      TEMPO 1508/1512 1SM BR
     FM151300 05005KT P6SM SCT010 BKN020
     FM151700 06005KT P6SM BKN040
      AMD LTD TO CLD VIS AND WIND=

USA.gov is the U.S. government's official web portal to all federal, state and local government web resources and services.